sensor_id;sensor_type;location;lat;lon;timestamp;temperature;humidity
41678;DHT22;27364;49.026;8.712;2022-12-11T00:00:48;-0.30;99.90
41678;DHT22;27364;49.026;8.712;2022-12-11T00:03:15;-0.30;99.90
41678;DHT22;27364;49.026;8.712;2022-12-11T00:05:41;-0.30;99.90
41678;DHT22;27364;49.026;8.712;2022-12-11T00:08:07;-0.30;99.90
41678;DHT22;27364;49.026;8.712;2022-12-11T00:10:33;-0.30;99.90
41678;DHT22;27364;49.026;8.712;2022-12-11T00:12:59;-0.30;99.90
41678;DHT22;27364;49.026;8.712;2022-12-11T00:15:24;-0.30;99.90
41678;DHT22;27364;49.026;8.712;2022-12-11T00:17:50;-0.30;99.90
41678;DHT22;27364;49.026;8.712;2022-12-11T00:20:15;-0.30;99.90
41678;DHT22;27364;49.026;8.712;2022-12-11T00:22:42;-0.30;99.90
41678;DHT22;27364;49.026;8.712;2022-12-11T00:25:07;-0.30;99.90
41678;DHT22;27364;49.026;8.712;2022-12-11T00:27:33;-0.30;99.90
41678;DHT22;27364;49.026;8.712;2022-12-11T00:29:59;-0.20;99.90
41678;DHT22;27364;49.026;8.712;2022-12-11T00:32:24;-0.30;99.90
41678;DHT22;27364;49.026;8.712;2022-12-11T00:34:50;-0.20;99.90
41678;DHT22;27364;49.026;8.712;2022-12-11T00:37:15;-0.20;99.90
41678;DHT22;27364;49.026;8.712;2022-12-11T00:39:41;-0.30;99.90
41678;DHT22;27364;49.026;8.712;2022-12-11T00:42:07;-0.30;99.90
41678;DHT22;27364;49.026;8.712;2022-12-11T00:44:33;-0.30;99.90
41678;DHT22;27364;49.026;8.712;2022-12-11T00:46:59;-0.20;99.90
41678;DHT22;27364;49.026;8.712;2022-12-11T00:49:25;-0.20;99.90
41678;DHT22;27364;49.026;8.712;2022-12-11T00:51:50;-0.20;99.90
41678;DHT22;27364;49.026;8.712;2022-12-11T00:54:16;-0.30;99.90
41678;DHT22;27364;49.026;8.712;2022-12-11T00:56:41;-0.30;99.90
41678;DHT22;27364;49.026;8.712;2022-12-11T00:59:07;-0.20;99.90
41678;DHT22;27364;49.026;8.712;2022-12-11T01:01:32;-0.20;99.90
41678;DHT22;27364;49.026;8.712;2022-12-11T01:03:58;-0.20;99.90
41678;DHT22;27364;49.026;8.712;2022-12-11T01:06:25;-0.20;99.90
41678;DHT22;27364;49.026;8.712;2022-12-11T01:08:51;-0.20;99.90
41678;DHT22;27364;49.026;8.712;2022-12-11T01:11:36;-0.10;99.90
41678;DHT22;27364;49.026;8.712;2022-12-11T01:14:03;-0.10;99.90
41678;DHT22;27364;49.026;8.712;2022-12-11T01:16:28;-0.10;99.90
41678;DHT22;27364;49.026;8.712;2022-12-11T01:18:54;-0.10;99.90
41678;DHT22;27364;49.026;8.712;2022-12-11T01:21:19;0.00;99.90
41678;DHT22;27364;49.026;8.712;2022-12-11T01:23:45;0.00;99.90
41678;DHT22;27364;49.026;8.712;2022-12-11T01:26:12;0.20;99.90
41678;DHT22;27364;49.026;8.712;2022-12-11T01:28:39;0.10;99.90
41678;DHT22;27364;49.026;8.712;2022-12-11T01:31:09;0.30;99.90
41678;DHT22;27364;49.026;8.712;2022-12-11T01:33:34;0.30;99.90
41678;DHT22;27364;49.026;8.712;2022-12-11T01:36:00;0.30;99.90
41678;DHT22;27364;49.026;8.712;2022-12-11T01:38:26;0.30;99.90
41678;DHT22;27364;49.026;8.712;2022-12-11T01:40:52;0.20;99.90
41678;DHT22;27364;49.026;8.712;2022-12-11T01:43:18;0.20;99.90
41678;DHT22;27364;49.026;8.712;2022-12-11T01:45:45;0.20;99.90
41678;DHT22;27364;49.026;8.712;2022-12-11T01:48:22;0.20;99.90
41678;DHT22;27364;49.026;8.712;2022-12-11T01:50:53;0.30;99.90
41678;DHT22;27364;49.026;8.712;2022-12-11T01:53:26;0.30;99.90
41678;DHT22;27364;49.026;8.712;2022-12-11T01:55:54;0.20;99.90
41678;DHT22;27364;49.026;8.712;2022-12-11T01:58:24;0.30;99.90
41678;DHT22;27364;49.026;8.712;2022-12-11T02:00:52;0.30;99.90
41678;DHT22;27364;49.026;8.712;2022-12-11T02:03:18;0.30;99.90
41678;DHT22;27364;49.026;8.712;2022-12-11T02:05:44;0.30;99.90
41678;DHT22;27364;49.026;8.712;2022-12-11T02:08:09;0.20;99.90
41678;DHT22;27364;49.026;8.712;2022-12-11T02:14:15;0.30;99.90
41678;DHT22;27364;49.026;8.712;2022-12-11T02:16:44;0.30;99.90
41678;DHT22;27364;49.026;8.712;2022-12-11T02:19:34;0.30;99.90
41678;DHT22;27364;49.026;8.712;2022-12-11T02:22:08;0.30;99.90
41678;DHT22;27364;49.026;8.712;2022-12-11T02:25:02;0.30;99.90
41678;DHT22;27364;49.026;8.712;2022-12-11T02:27:49;0.30;99.90
41678;DHT22;27364;49.026;8.712;2022-12-11T02:30:21;0.30;99.90
41678;DHT22;27364;49.026;8.712;2022-12-11T02:32:53;0.20;99.90
41678;DHT22;27364;49.026;8.712;2022-12-11T02:35:33;0.30;99.90
41678;DHT22;27364;49.026;8.712;2022-12-11T02:38:07;0.20;99.90
41678;DHT22;27364;49.026;8.712;2022-12-11T02:40:36;0.20;99.90
41678;DHT22;27364;49.026;8.712;2022-12-11T02:43:05;0.20;99.90
41678;DHT22;27364;49.026;8.712;2022-12-11T02:45:33;0.20;99.90
41678;DHT22;27364;49.026;8.712;2022-12-11T02:48:02;0.10;99.90
41678;DHT22;27364;49.026;8.712;2022-12-11T02:50:28;0.10;99.90
41678;DHT22;27364;49.026;8.712;2022-12-11T02:52:55;0.20;99.90
41678;DHT22;27364;49.026;8.712;2022-12-11T02:55:22;0.20;99.90
41678;DHT22;27364;49.026;8.712;2022-12-11T02:57:59;0.20;99.90
41678;DHT22;27364;49.026;8.712;2022-12-11T03:00:26;0.20;99.90
41678;DHT22;27364;49.026;8.712;2022-12-11T03:02:52;0.20;99.90
41678;DHT22;27364;49.026;8.712;2022-12-11T03:05:17;0.20;99.90
41678;DHT22;27364;49.026;8.712;2022-12-11T03:07:44;0.10;99.90
41678;DHT22;27364;49.026;8.712;2022-12-11T03:10:13;0.20;99.90
41678;DHT22;27364;49.026;8.712;2022-12-11T03:12:42;0.20;99.90
41678;DHT22;27364;49.026;8.712;2022-12-11T03:15:13;0.20;99.90
41678;DHT22;27364;49.026;8.712;2022-12-11T03:25:51;0.20;99.90
41678;DHT22;27364;49.026;8.712;2022-12-11T03:28:25;0.20;99.90
41678;DHT22;27364;49.026;8.712;2022-12-11T03:30:52;0.20;99.90
41678;DHT22;27364;49.026;8.712;2022-12-11T03:33:24;0.20;99.90
41678;DHT22;27364;49.026;8.712;2022-12-11T03:35:54;0.10;99.90
41678;DHT22;27364;49.026;8.712;2022-12-11T03:39:06;0.10;99.90
41678;DHT22;27364;49.026;8.712;2022-12-11T03:41:14;0.20;99.90
41678;DHT22;27364;49.026;8.712;2022-12-11T03:43:40;0.10;99.90
41678;DHT22;27364;49.026;8.712;2022-12-11T03:46:08;0.10;99.90
41678;DHT22;27364;49.026;8.712;2022-12-11T03:48:37;0.10;99.90
41678;DHT22;27364;49.026;8.712;2022-12-11T03:51:05;0.00;99.90
41678;DHT22;27364;49.026;8.712;2022-12-11T03:53:33;0.10;99.90
41678;DHT22;27364;49.026;8.712;2022-12-11T03:55:59;0.10;99.90
41678;DHT22;27364;49.026;8.712;2022-12-11T03:58:26;0.10;99.90
41678;DHT22;27364;49.026;8.712;2022-12-11T04:00:51;0.10;99.90
41678;DHT22;27364;49.026;8.712;2022-12-11T04:03:17;0.10;99.90
41678;DHT22;27364;49.026;8.712;2022-12-11T04:05:45;0.10;99.90
41678;DHT22;27364;49.026;8.712;2022-12-11T04:08:12;0.00;99.90
41678;DHT22;27364;49.026;8.712;2022-12-11T04:10:38;0.00;99.90
41678;DHT22;27364;49.026;8.712;2022-12-11T04:13:04;0.00;99.90
41678;DHT22;27364;49.026;8.712;2022-12-11T04:15:29;0.10;99.90
41678;DHT22;27364;49.026;8.712;2022-12-11T04:17:55;0.10;99.90
41678;DHT22;27364;49.026;8.712;2022-12-11T04:20:39;0.10;99.90
41678;DHT22;27364;49.026;8.712;2022-12-11T04:23:33;0.00;99.90
41678;DHT22;27364;49.026;8.712;2022-12-11T04:26:19;0.10;99.90
41678;DHT22;27364;49.026;8.712;2022-12-11T04:28:46;0.10;99.90
41678;DHT22;27364;49.026;8.712;2022-12-11T04:31:14;0.10;99.90
41678;DHT22;27364;49.026;8.712;2022-12-11T04:33:40;0.10;99.90
41678;DHT22;27364;49.026;8.712;2022-12-11T04:36:06;0.00;99.90
41678;DHT22;27364;49.026;8.712;2022-12-11T04:38:32;0.00;99.90
41678;DHT22;27364;49.026;8.712;2022-12-11T04:41:04;0.00;99.90
41678;DHT22;27364;49.026;8.712;2022-12-11T04:43:31;0.00;99.90
41678;DHT22;27364;49.026;8.712;2022-12-11T04:46:07;0.00;99.90
41678;DHT22;27364;49.026;8.712;2022-12-11T04:48:34;-0.10;99.90
41678;DHT22;27364;49.026;8.712;2022-12-11T04:51:00;0.00;99.90
41678;DHT22;27364;49.026;8.712;2022-12-11T04:53:26;0.00;99.90
41678;DHT22;27364;49.026;8.712;2022-12-11T04:55:51;-0.10;99.90
41678;DHT22;27364;49.026;8.712;2022-12-11T04:58:17;-0.10;99.90
41678;DHT22;27364;49.026;8.712;2022-12-11T05:00:43;-0.10;99.90
41678;DHT22;27364;49.026;8.712;2022-12-11T05:03:09;-0.10;99.90
41678;DHT22;27364;49.026;8.712;2022-12-11T05:05:35;-0.10;99.90
41678;DHT22;27364;49.026;8.712;2022-12-11T05:08:00;-0.20;99.90
41678;DHT22;27364;49.026;8.712;2022-12-11T05:10:26;-0.20;99.90
41678;DHT22;27364;49.026;8.712;2022-12-11T05:12:51;-0.20;99.90
41678;DHT22;27364;49.026;8.712;2022-12-11T05:15:17;-0.20;99.90
41678;DHT22;27364;49.026;8.712;2022-12-11T05:17:42;-0.20;99.90
41678;DHT22;27364;49.026;8.712;2022-12-11T05:20:09;-0.30;99.90
41678;DHT22;27364;49.026;8.712;2022-12-11T05:22:35;-0.20;99.90
41678;DHT22;27364;49.026;8.712;2022-12-11T05:25:00;-0.20;99.90
41678;DHT22;27364;49.026;8.712;2022-12-11T05:27:26;-0.20;99.90
41678;DHT22;27364;49.026;8.712;2022-12-11T05:29:51;-0.30;99.90
41678;DHT22;27364;49.026;8.712;2022-12-11T05:32:17;-0.20;99.90
41678;DHT22;27364;49.026;8.712;2022-12-11T05:34:42;-0.30;99.90
41678;DHT22;27364;49.026;8.712;2022-12-11T05:37:08;-0.20;99.90
41678;DHT22;27364;49.026;8.712;2022-12-11T05:39:34;-0.20;99.90
41678;DHT22;27364;49.026;8.712;2022-12-11T05:41:59;-0.30;99.90
41678;DHT22;27364;49.026;8.712;2022-12-11T05:44:25;-0.20;99.90
41678;DHT22;27364;49.026;8.712;2022-12-11T05:46:50;-0.30;99.90
41678;DHT22;27364;49.026;8.712;2022-12-11T05:49:16;-0.20;99.90
41678;DHT22;27364;49.026;8.712;2022-12-11T05:51:41;-0.30;99.90
41678;DHT22;27364;49.026;8.712;2022-12-11T05:54:08;-0.30;99.90
41678;DHT22;27364;49.026;8.712;2022-12-11T05:56:35;-0.20;99.90
41678;DHT22;27364;49.026;8.712;2022-12-11T05:59:01;-0.30;99.90
41678;DHT22;27364;49.026;8.712;2022-12-11T06:01:31;-0.30;99.90
41678;DHT22;27364;49.026;8.712;2022-12-11T06:03:57;-0.30;99.90
41678;DHT22;27364;49.026;8.712;2022-12-11T06:06:23;-0.30;99.90
41678;DHT22;27364;49.026;8.712;2022-12-11T06:08:54;-0.30;99.90
41678;DHT22;27364;49.026;8.712;2022-12-11T06:11:20;-0.20;99.90
41678;DHT22;27364;49.026;8.712;2022-12-11T06:13:46;-0.20;99.90
41678;DHT22;27364;49.026;8.712;2022-12-11T06:16:12;-0.20;99.90
41678;DHT22;27364;49.026;8.712;2022-12-11T06:18:40;-0.30;99.90
41678;DHT22;27364;49.026;8.712;2022-12-11T06:21:20;-0.20;99.90
41678;DHT22;27364;49.026;8.712;2022-12-11T06:23:47;-0.20;99.90
41678;DHT22;27364;49.026;8.712;2022-12-11T06:26:14;-0.20;99.90
41678;DHT22;27364;49.026;8.712;2022-12-11T06:28:39;-0.20;99.90
41678;DHT22;27364;49.026;8.712;2022-12-11T06:31:05;-0.20;99.90
41678;DHT22;27364;49.026;8.712;2022-12-11T06:33:31;-0.20;99.90
41678;DHT22;27364;49.026;8.712;2022-12-11T06:36:01;-0.30;99.90
41678;DHT22;27364;49.026;8.712;2022-12-11T06:38:27;-0.30;99.90
41678;DHT22;27364;49.026;8.712;2022-12-11T06:41:00;-0.20;99.90
41678;DHT22;27364;49.026;8.712;2022-12-11T06:43:27;-0.30;99.90
41678;DHT22;27364;49.026;8.712;2022-12-11T06:45:52;-0.30;99.90
41678;DHT22;27364;49.026;8.712;2022-12-11T06:48:18;-0.30;99.90
41678;DHT22;27364;49.026;8.712;2022-12-11T06:50:44;-0.30;99.90
41678;DHT22;27364;49.026;8.712;2022-12-11T06:53:11;-0.40;99.90
41678;DHT22;27364;49.026;8.712;2022-12-11T06:55:37;-0.40;99.90
41678;DHT22;27364;49.026;8.712;2022-12-11T06:58:03;-0.40;99.90
41678;DHT22;27364;49.026;8.712;2022-12-11T07:00:29;-0.40;99.90
41678;DHT22;27364;49.026;8.712;2022-12-11T07:02:55;-0.40;99.90
41678;DHT22;27364;49.026;8.712;2022-12-11T07:05:21;-0.40;99.90
41678;DHT22;27364;49.026;8.712;2022-12-11T07:07:46;-0.40;99.90
41678;DHT22;27364;49.026;8.712;2022-12-11T07:10:12;-0.40;99.90
41678;DHT22;27364;49.026;8.712;2022-12-11T07:12:37;-0.50;99.90
41678;DHT22;27364;49.026;8.712;2022-12-11T07:15:04;-0.40;99.90
41678;DHT22;27364;49.026;8.712;2022-12-11T07:17:30;-0.40;99.90
41678;DHT22;27364;49.026;8.712;2022-12-11T07:19:56;-0.40;99.90
41678;DHT22;27364;49.026;8.712;2022-12-11T07:22:21;-0.50;99.90
41678;DHT22;27364;49.026;8.712;2022-12-11T07:24:47;-0.50;99.90
41678;DHT22;27364;49.026;8.712;2022-12-11T07:27:13;-0.50;99.90
41678;DHT22;27364;49.026;8.712;2022-12-11T07:29:38;-0.50;99.90
41678;DHT22;27364;49.026;8.712;2022-12-11T07:32:04;-0.50;99.90
41678;DHT22;27364;49.026;8.712;2022-12-11T07:34:29;-0.40;99.90
41678;DHT22;27364;49.026;8.712;2022-12-11T07:36:55;-0.40;99.90
41678;DHT22;27364;49.026;8.712;2022-12-11T07:39:20;-0.40;99.90
41678;DHT22;27364;49.026;8.712;2022-12-11T07:41:46;-0.40;99.90
41678;DHT22;27364;49.026;8.712;2022-12-11T07:44:12;-0.40;99.90
41678;DHT22;27364;49.026;8.712;2022-12-11T07:46:38;-0.30;99.90
41678;DHT22;27364;49.026;8.712;2022-12-11T07:49:05;-0.30;99.90
41678;DHT22;27364;49.026;8.712;2022-12-11T07:51:33;-0.30;99.90
41678;DHT22;27364;49.026;8.712;2022-12-11T07:54:13;-0.20;99.90
41678;DHT22;27364;49.026;8.712;2022-12-11T07:56:42;-0.30;99.90
41678;DHT22;27364;49.026;8.712;2022-12-11T07:59:08;-0.30;99.90
41678;DHT22;27364;49.026;8.712;2022-12-11T08:01:35;-0.30;99.90
41678;DHT22;27364;49.026;8.712;2022-12-11T08:04:01;-0.30;99.90
41678;DHT22;27364;49.026;8.712;2022-12-11T08:06:29;-0.30;99.90
41678;DHT22;27364;49.026;8.712;2022-12-11T08:08:56;-0.30;99.90
41678;DHT22;27364;49.026;8.712;2022-12-11T08:11:22;-0.30;99.90
41678;DHT22;27364;49.026;8.712;2022-12-11T08:13:48;-0.40;99.90
41678;DHT22;27364;49.026;8.712;2022-12-11T08:16:14;-0.40;99.90
41678;DHT22;27364;49.026;8.712;2022-12-11T08:18:41;-0.40;99.90
41678;DHT22;27364;49.026;8.712;2022-12-11T08:21:11;-0.30;99.90
41678;DHT22;27364;49.026;8.712;2022-12-11T08:23:37;-0.30;99.90
41678;DHT22;27364;49.026;8.712;2022-12-11T08:26:04;-0.20;99.90
41678;DHT22;27364;49.026;8.712;2022-12-11T08:28:30;-0.30;99.90
41678;DHT22;27364;49.026;8.712;2022-12-11T08:30:57;-0.20;99.90
41678;DHT22;27364;49.026;8.712;2022-12-11T08:33:22;-0.30;99.90
41678;DHT22;27364;49.026;8.712;2022-12-11T08:35:48;-0.20;99.90
41678;DHT22;27364;49.026;8.712;2022-12-11T08:38:14;-0.20;99.90
41678;DHT22;27364;49.026;8.712;2022-12-11T08:40:40;-0.10;99.90
41678;DHT22;27364;49.026;8.712;2022-12-11T08:43:05;0.00;99.90
41678;DHT22;27364;49.026;8.712;2022-12-11T08:45:31;-0.10;99.90
41678;DHT22;27364;49.026;8.712;2022-12-11T08:47:58;-0.10;99.90
41678;DHT22;27364;49.026;8.712;2022-12-11T08:50:23;0.00;99.90
41678;DHT22;27364;49.026;8.712;2022-12-11T08:52:50;0.00;99.90
41678;DHT22;27364;49.026;8.712;2022-12-11T08:55:15;0.10;99.90
41678;DHT22;27364;49.026;8.712;2022-12-11T08:57:41;0.10;99.90
41678;DHT22;27364;49.026;8.712;2022-12-11T09:00:08;0.20;99.90
41678;DHT22;27364;49.026;8.712;2022-12-11T09:02:34;0.30;99.90
41678;DHT22;27364;49.026;8.712;2022-12-11T09:05:00;0.30;99.90
41678;DHT22;27364;49.026;8.712;2022-12-11T09:07:25;0.30;99.90
41678;DHT22;27364;49.026;8.712;2022-12-11T09:09:54;0.30;99.90
41678;DHT22;27364;49.026;8.712;2022-12-11T09:12:19;0.40;99.90
41678;DHT22;27364;49.026;8.712;2022-12-11T09:14:45;0.30;99.90
41678;DHT22;27364;49.026;8.712;2022-12-11T09:17:10;0.30;99.90
41678;DHT22;27364;49.026;8.712;2022-12-11T09:19:36;0.50;99.90
41678;DHT22;27364;49.026;8.712;2022-12-11T09:22:01;0.40;99.90
41678;DHT22;27364;49.026;8.712;2022-12-11T09:24:27;0.30;99.90
41678;DHT22;27364;49.026;8.712;2022-12-11T09:26:53;0.20;99.90
41678;DHT22;27364;49.026;8.712;2022-12-11T09:29:18;0.20;99.90
41678;DHT22;27364;49.026;8.712;2022-12-11T09:31:45;0.20;99.90
41678;DHT22;27364;49.026;8.712;2022-12-11T09:34:12;0.30;99.90
41678;DHT22;27364;49.026;8.712;2022-12-11T09:36:39;0.30;99.90
41678;DHT22;27364;49.026;8.712;2022-12-11T09:39:06;0.30;99.90
41678;DHT22;27364;49.026;8.712;2022-12-11T09:41:45;0.30;99.90
41678;DHT22;27364;49.026;8.712;2022-12-11T09:44:31;0.40;99.90
41678;DHT22;27364;49.026;8.712;2022-12-11T09:46:58;0.40;99.90
41678;DHT22;27364;49.026;8.712;2022-12-11T09:49:31;0.40;99.90
41678;DHT22;27364;49.026;8.712;2022-12-11T09:52:27;0.50;99.90
41678;DHT22;27364;49.026;8.712;2022-12-11T09:54:59;0.60;99.90
41678;DHT22;27364;49.026;8.712;2022-12-11T09:57:34;0.60;99.90
41678;DHT22;27364;49.026;8.712;2022-12-11T10:00:23;0.70;99.90
41678;DHT22;27364;49.026;8.712;2022-12-11T10:03:27;0.70;99.90
41678;DHT22;27364;49.026;8.712;2022-12-11T10:13:53;0.80;99.90
41678;DHT22;27364;49.026;8.712;2022-12-11T10:18:59;0.90;99.90
41678;DHT22;27364;49.026;8.712;2022-12-11T10:21:26;0.90;99.90
41678;DHT22;27364;49.026;8.712;2022-12-11T10:24:00;0.80;99.90
41678;DHT22;27364;49.026;8.712;2022-12-11T10:26:28;0.80;99.90
41678;DHT22;27364;49.026;8.712;2022-12-11T10:28:58;0.80;99.90
41678;DHT22;27364;49.026;8.712;2022-12-11T10:31:29;0.80;99.90
41678;DHT22;27364;49.026;8.712;2022-12-11T10:34:00;0.80;99.90
41678;DHT22;27364;49.026;8.712;2022-12-11T10:36:30;0.80;99.90
41678;DHT22;27364;49.026;8.712;2022-12-11T10:38:57;0.90;99.90
41678;DHT22;27364;49.026;8.712;2022-12-11T10:41:31;0.90;99.90
41678;DHT22;27364;49.026;8.712;2022-12-11T10:43:57;0.80;99.90
41678;DHT22;27364;49.026;8.712;2022-12-11T10:46:28;0.90;99.90
41678;DHT22;27364;49.026;8.712;2022-12-11T10:49:00;0.90;99.90
41678;DHT22;27364;49.026;8.712;2022-12-11T10:54:04;0.90;99.90
41678;DHT22;27364;49.026;8.712;2022-12-11T10:56:32;0.90;99.90
41678;DHT22;27364;49.026;8.712;2022-12-11T10:58:59;1.00;99.90
41678;DHT22;27364;49.026;8.712;2022-12-11T11:01:30;1.00;99.90
41678;DHT22;27364;49.026;8.712;2022-12-11T11:04:02;1.00;99.90
41678;DHT22;27364;49.026;8.712;2022-12-11T11:06:28;1.00;99.90
41678;DHT22;27364;49.026;8.712;2022-12-11T11:08:56;1.10;99.90
41678;DHT22;27364;49.026;8.712;2022-12-11T11:11:37;1.00;99.90
41678;DHT22;27364;49.026;8.712;2022-12-11T11:16:36;1.10;99.90
41678;DHT22;27364;49.026;8.712;2022-12-11T11:19:02;1.20;99.90
41678;DHT22;27364;49.026;8.712;2022-12-11T11:21:28;1.10;99.90
41678;DHT22;27364;49.026;8.712;2022-12-11T11:23:56;1.10;99.90
41678;DHT22;27364;49.026;8.712;2022-12-11T11:26:22;1.00;99.90
41678;DHT22;27364;49.026;8.712;2022-12-11T11:28:53;1.00;99.90
41678;DHT22;27364;49.026;8.712;2022-12-11T11:31:21;1.00;99.90
41678;DHT22;27364;49.026;8.712;2022-12-11T11:34:00;1.00;99.90
41678;DHT22;27364;49.026;8.712;2022-12-11T11:36:30;1.00;99.90
41678;DHT22;27364;49.026;8.712;2022-12-11T11:39:13;1.00;99.90
41678;DHT22;27364;49.026;8.712;2022-12-11T11:42:12;1.10;99.90
41678;DHT22;27364;49.026;8.712;2022-12-11T11:44:51;1.00;99.90
41678;DHT22;27364;49.026;8.712;2022-12-11T11:47:27;1.10;99.90
41678;DHT22;27364;49.026;8.712;2022-12-11T11:52:49;1.20;99.90
41678;DHT22;27364;49.026;8.712;2022-12-11T11:55:20;1.20;99.90
41678;DHT22;27364;49.026;8.712;2022-12-11T11:58:16;1.30;99.90
41678;DHT22;27364;49.026;8.712;2022-12-11T12:00:43;1.30;99.90
41678;DHT22;27364;49.026;8.712;2022-12-11T12:03:15;1.30;99.90
41678;DHT22;27364;49.026;8.712;2022-12-11T12:06:01;1.40;99.90
41678;DHT22;27364;49.026;8.712;2022-12-11T12:08:38;1.40;99.90
41678;DHT22;27364;49.026;8.712;2022-12-11T12:19:42;1.40;99.90
41678;DHT22;27364;49.026;8.712;2022-12-11T12:22:34;1.50;99.90
41678;DHT22;27364;49.026;8.712;2022-12-11T12:25:24;1.50;99.90
41678;DHT22;27364;49.026;8.712;2022-12-11T12:36:41;1.50;99.90
41678;DHT22;27364;49.026;8.712;2022-12-11T12:39:22;1.60;99.90
41678;DHT22;27364;49.026;8.712;2022-12-11T12:41:56;1.70;99.90
41678;DHT22;27364;49.026;8.712;2022-12-11T12:44:26;1.80;99.90
41678;DHT22;27364;49.026;8.712;2022-12-11T12:47:12;1.70;99.90
41678;DHT22;27364;49.026;8.712;2022-12-11T12:49:45;1.70;99.90
41678;DHT22;27364;49.026;8.712;2022-12-11T12:52:32;1.60;99.90
41678;DHT22;27364;49.026;8.712;2022-12-11T12:55:02;1.60;99.90
41678;DHT22;27364;49.026;8.712;2022-12-11T13:02:55;1.50;99.90
41678;DHT22;27364;49.026;8.712;2022-12-11T13:05:26;1.50;99.90
41678;DHT22;27364;49.026;8.712;2022-12-11T13:07:58;1.50;99.90
41678;DHT22;27364;49.026;8.712;2022-12-11T13:12:53;1.50;99.90
41678;DHT22;27364;49.026;8.712;2022-12-11T13:15:36;1.50;99.90
41678;DHT22;27364;49.026;8.712;2022-12-11T13:18:29;1.50;99.90
41678;DHT22;27364;49.026;8.712;2022-12-11T13:20:54;1.50;99.90
41678;DHT22;27364;49.026;8.712;2022-12-11T13:23:28;1.40;99.90
41678;DHT22;27364;49.026;8.712;2022-12-11T13:25:56;1.40;99.90
41678;DHT22;27364;49.026;8.712;2022-12-11T13:33:26;1.30;99.90
41678;DHT22;27364;49.026;8.712;2022-12-11T13:38:36;1.30;99.90
41678;DHT22;27364;49.026;8.712;2022-12-11T13:41:08;1.30;99.90
41678;DHT22;27364;49.026;8.712;2022-12-11T13:43:35;1.20;99.90
41678;DHT22;27364;49.026;8.712;2022-12-11T13:46:05;1.30;99.90
41678;DHT22;27364;49.026;8.712;2022-12-11T13:48:50;1.20;99.90
41678;DHT22;27364;49.026;8.712;2022-12-11T13:51:21;1.30;99.90
41678;DHT22;27364;49.026;8.712;2022-12-11T13:53:46;1.30;99.90
41678;DHT22;27364;49.026;8.712;2022-12-11T13:56:17;1.30;99.90
41678;DHT22;27364;49.026;8.712;2022-12-11T13:58:43;1.30;99.90
41678;DHT22;27364;49.026;8.712;2022-12-11T14:01:15;1.20;99.90
41678;DHT22;27364;49.026;8.712;2022-12-11T14:04:13;1.30;99.90
41678;DHT22;27364;49.026;8.712;2022-12-11T14:06:37;1.30;99.90
41678;DHT22;27364;49.026;8.712;2022-12-11T14:09:04;1.30;99.90
41678;DHT22;27364;49.026;8.712;2022-12-11T14:11:36;1.20;99.90
41678;DHT22;27364;49.026;8.712;2022-12-11T14:14:06;1.30;99.90
41678;DHT22;27364;49.026;8.712;2022-12-11T14:16:32;1.20;99.90
41678;DHT22;27364;49.026;8.712;2022-12-11T14:19:07;1.20;99.90
41678;DHT22;27364;49.026;8.712;2022-12-11T14:21:34;1.20;99.90
41678;DHT22;27364;49.026;8.712;2022-12-11T14:24:01;1.20;99.90
41678;DHT22;27364;49.026;8.712;2022-12-11T14:26:30;1.20;99.90
41678;DHT22;27364;49.026;8.712;2022-12-11T14:28:55;1.20;99.90
41678;DHT22;27364;49.026;8.712;2022-12-11T14:31:34;1.10;99.90
41678;DHT22;27364;49.026;8.712;2022-12-11T14:34:11;1.20;99.90
41678;DHT22;27364;49.026;8.712;2022-12-11T14:36:39;1.10;99.90
41678;DHT22;27364;49.026;8.712;2022-12-11T14:39:12;1.10;99.90
41678;DHT22;27364;49.026;8.712;2022-12-11T14:41:42;1.10;99.90
41678;DHT22;27364;49.026;8.712;2022-12-11T14:44:14;1.10;99.90
41678;DHT22;27364;49.026;8.712;2022-12-11T14:46:47;1.10;99.90
41678;DHT22;27364;49.026;8.712;2022-12-11T14:51:46;1.10;99.90
41678;DHT22;27364;49.026;8.712;2022-12-11T14:54:19;1.10;99.90
41678;DHT22;27364;49.026;8.712;2022-12-11T14:56:47;1.00;99.90
41678;DHT22;27364;49.026;8.712;2022-12-11T14:59:20;1.00;99.90
41678;DHT22;27364;49.026;8.712;2022-12-11T15:02:20;1.00;99.90
41678;DHT22;27364;49.026;8.712;2022-12-11T15:04:42;1.00;99.90
41678;DHT22;27364;49.026;8.712;2022-12-11T15:07:18;1.00;99.90
41678;DHT22;27364;49.026;8.712;2022-12-11T15:09:45;1.00;99.90
41678;DHT22;27364;49.026;8.712;2022-12-11T15:12:18;1.00;99.90
41678;DHT22;27364;49.026;8.712;2022-12-11T15:17:18;1.00;99.90
41678;DHT22;27364;49.026;8.712;2022-12-11T15:19:54;1.00;99.90
41678;DHT22;27364;49.026;8.712;2022-12-11T15:22:22;0.90;99.90
41678;DHT22;27364;49.026;8.712;2022-12-11T15:24:52;0.90;99.90
41678;DHT22;27364;49.026;8.712;2022-12-11T15:27:31;0.90;99.90
41678;DHT22;27364;49.026;8.712;2022-12-11T15:29:58;0.90;99.90
41678;DHT22;27364;49.026;8.712;2022-12-11T15:32:24;0.90;99.90
41678;DHT22;27364;49.026;8.712;2022-12-11T15:34:55;0.90;99.90
41678;DHT22;27364;49.026;8.712;2022-12-11T15:37:30;0.80;99.90
41678;DHT22;27364;49.026;8.712;2022-12-11T15:39:57;0.80;99.90
41678;DHT22;27364;49.026;8.712;2022-12-11T15:42:25;0.80;99.90
41678;DHT22;27364;49.026;8.712;2022-12-11T15:44:52;0.80;99.90
41678;DHT22;27364;49.026;8.712;2022-12-11T15:47:21;0.80;99.90
41678;DHT22;27364;49.026;8.712;2022-12-11T15:49:47;0.80;99.90
41678;DHT22;27364;49.026;8.712;2022-12-11T15:52:13;0.80;99.90
41678;DHT22;27364;49.026;8.712;2022-12-11T15:54:38;0.70;99.90
41678;DHT22;27364;49.026;8.712;2022-12-11T15:57:06;0.70;99.90
41678;DHT22;27364;49.026;8.712;2022-12-11T15:59:35;0.70;99.90
41678;DHT22;27364;49.026;8.712;2022-12-11T16:02:00;0.70;99.90
41678;DHT22;27364;49.026;8.712;2022-12-11T16:04:26;0.70;99.90
41678;DHT22;27364;49.026;8.712;2022-12-11T16:06:51;0.70;99.90
41678;DHT22;27364;49.026;8.712;2022-12-11T16:09:17;0.70;99.90
41678;DHT22;27364;49.026;8.712;2022-12-11T16:11:43;0.70;99.90
41678;DHT22;27364;49.026;8.712;2022-12-11T16:14:08;0.70;99.90
41678;DHT22;27364;49.026;8.712;2022-12-11T16:16:34;0.70;99.90
41678;DHT22;27364;49.026;8.712;2022-12-11T16:18:59;0.60;99.90
41678;DHT22;27364;49.026;8.712;2022-12-11T16:21:25;0.60;99.90
41678;DHT22;27364;49.026;8.712;2022-12-11T16:23:50;0.60;99.90
41678;DHT22;27364;49.026;8.712;2022-12-11T16:26:16;0.60;99.90
41678;DHT22;27364;49.026;8.712;2022-12-11T16:28:42;0.60;99.90
41678;DHT22;27364;49.026;8.712;2022-12-11T16:31:14;0.60;99.90
41678;DHT22;27364;49.026;8.712;2022-12-11T16:33:40;0.60;99.90
41678;DHT22;27364;49.026;8.712;2022-12-11T16:36:17;0.70;99.90
41678;DHT22;27364;49.026;8.712;2022-12-11T16:38:47;0.70;99.90
41678;DHT22;27364;49.026;8.712;2022-12-11T16:41:13;0.70;99.90
41678;DHT22;27364;49.026;8.712;2022-12-11T16:43:39;0.60;99.90
41678;DHT22;27364;49.026;8.712;2022-12-11T16:46:05;0.60;99.90
41678;DHT22;27364;49.026;8.712;2022-12-11T16:48:31;0.60;99.90
41678;DHT22;27364;49.026;8.712;2022-12-11T16:50:56;0.60;99.90
41678;DHT22;27364;49.026;8.712;2022-12-11T16:53:23;0.60;99.90
41678;DHT22;27364;49.026;8.712;2022-12-11T16:55:49;0.60;99.90
41678;DHT22;27364;49.026;8.712;2022-12-11T16:58:14;0.60;99.90
41678;DHT22;27364;49.026;8.712;2022-12-11T17:00:45;0.60;99.90